sensor_id;sensor_type;location;lat;lon;timestamp;P1;durP1;ratioP1;P2;durP2;ratioP2
69569;SDS011;56781;42.292;23.146;2024-02-23T00:01:14;22.40;;;11.00;;
69569;SDS011;56781;42.292;23.146;2024-02-23T00:03:42;20.48;;;9.88;;
69569;SDS011;56781;42.292;23.146;2024-02-23T00:06:11;20.65;;;9.23;;
69569;SDS011;56781;42.292;23.146;2024-02-23T00:08:41;30.30;;;12.90;;
69569;SDS011;56781;42.292;23.146;2024-02-23T00:11:10;24.05;;;10.85;;
69569;SDS011;56781;42.292;23.146;2024-02-23T00:13:38;21.97;;;9.40;;
69569;SDS011;56781;42.292;23.146;2024-02-23T00:16:07;21.95;;;9.75;;
69569;SDS011;56781;42.292;23.146;2024-02-23T00:18:37;18.67;;;8.40;;
69569;SDS011;56781;42.292;23.146;2024-02-23T00:21:06;19.02;;;8.43;;
69569;SDS011;56781;42.292;23.146;2024-02-23T00:23:34;20.45;;;8.88;;
69569;SDS011;56781;42.292;23.146;2024-02-23T00:26:03;19.73;;;8.90;;
69569;SDS011;56781;42.292;23.146;2024-02-23T00:28:31;20.25;;;9.45;;
69569;SDS011;56781;42.292;23.146;2024-02-23T00:31:00;26.50;;;9.90;;
69569;SDS011;56781;42.292;23.146;2024-02-23T00:33:28;24.98;;;11.25;;
69569;SDS011;56781;42.292;23.146;2024-02-23T00:35:58;23.02;;;10.07;;
69569;SDS011;56781;42.292;23.146;2024-02-23T00:38:27;29.57;;;10.93;;
69569;SDS011;56781;42.292;23.146;2024-02-23T00:40:56;31.15;;;12.75;;
69569;SDS011;56781;42.292;23.146;2024-02-23T00:43:24;26.60;;;11.23;;
69569;SDS011;56781;42.292;23.146;2024-02-23T00:45:55;24.90;;;11.32;;
69569;SDS011;56781;42.292;23.146;2024-02-23T00:48:24;30.33;;;13.13;;
69569;SDS011;56781;42.292;23.146;2024-02-23T00:50:52;29.90;;;12.87;;
69569;SDS011;56781;42.292;23.146;2024-02-23T00:53:23;23.20;;;10.60;;
69569;SDS011;56781;42.292;23.146;2024-02-23T00:55:51;25.05;;;10.80;;
69569;SDS011;56781;42.292;23.146;2024-02-23T00:58:20;21.63;;;10.38;;
69569;SDS011;56781;42.292;23.146;2024-02-23T01:00:48;22.85;;;10.93;;
69569;SDS011;56781;42.292;23.146;2024-02-23T01:03:17;20.63;;;9.17;;
69569;SDS011;56781;42.292;23.146;2024-02-23T01:05:45;22.30;;;10.80;;
69569;SDS011;56781;42.292;23.146;2024-02-23T01:08:14;23.38;;;10.88;;
69569;SDS011;56781;42.292;23.146;2024-02-23T01:10:44;21.92;;;10.25;;
69569;SDS011;56781;42.292;23.146;2024-02-23T01:13:13;21.08;;;10.25;;
69569;SDS011;56781;42.292;23.146;2024-02-23T01:15:42;22.40;;;9.73;;
69569;SDS011;56781;42.292;23.146;2024-02-23T01:18:11;23.42;;;11.48;;
69569;SDS011;56781;42.292;23.146;2024-02-23T01:20:39;23.05;;;10.80;;
69569;SDS011;56781;42.292;23.146;2024-02-23T01:23:09;24.90;;;11.23;;
69569;SDS011;56781;42.292;23.146;2024-02-23T01:25:37;24.98;;;11.32;;
69569;SDS011;56781;42.292;23.146;2024-02-23T01:28:07;24.50;;;11.73;;
69569;SDS011;56781;42.292;23.146;2024-02-23T01:30:36;24.42;;;11.18;;
69569;SDS011;56781;42.292;23.146;2024-02-23T01:33:05;22.27;;;10.35;;
69569;SDS011;56781;42.292;23.146;2024-02-23T01:35:33;27.27;;;11.88;;
69569;SDS011;56781;42.292;23.146;2024-02-23T01:38:03;24.60;;;11.27;;
69569;SDS011;56781;42.292;23.146;2024-02-23T01:40:32;24.40;;;11.60;;
69569;SDS011;56781;42.292;23.146;2024-02-23T01:43:02;23.70;;;10.45;;
69569;SDS011;56781;42.292;23.146;2024-02-23T01:45:32;24.00;;;11.70;;
69569;SDS011;56781;42.292;23.146;2024-02-23T01:48:01;24.05;;;11.55;;
69569;SDS011;56781;42.292;23.146;2024-02-23T01:50:30;24.23;;;10.60;;
69569;SDS011;56781;42.292;23.146;2024-02-23T01:53:00;23.57;;;10.77;;
69569;SDS011;56781;42.292;23.146;2024-02-23T01:55:29;23.02;;;10.77;;
69569;SDS011;56781;42.292;23.146;2024-02-23T01:58:02;22.15;;;10.80;;
69569;SDS011;56781;42.292;23.146;2024-02-23T02:00:35;20.95;;;10.45;;
69569;SDS011;56781;42.292;23.146;2024-02-23T02:03:04;26.33;;;12.63;;
69569;SDS011;56781;42.292;23.146;2024-02-23T02:05:38;28.40;;;12.33;;
69569;SDS011;56781;42.292;23.146;2024-02-23T02:08:07;23.50;;;10.85;;
69569;SDS011;56781;42.292;23.146;2024-02-23T02:10:35;22.75;;;11.30;;
69569;SDS011;56781;42.292;23.146;2024-02-23T02:13:04;23.27;;;11.20;;
69569;SDS011;56781;42.292;23.146;2024-02-23T02:15:33;23.90;;;10.85;;
69569;SDS011;56781;42.292;23.146;2024-02-23T02:18:04;36.73;;;15.50;;
69569;SDS011;56781;42.292;23.146;2024-02-23T02:20:33;34.45;;;12.65;;
69569;SDS011;56781;42.292;23.146;2024-02-23T02:23:04;30.25;;;13.35;;
69569;SDS011;56781;42.292;23.146;2024-02-23T02:25:34;28.38;;;12.55;;
69569;SDS011;56781;42.292;23.146;2024-02-23T02:28:05;28.05;;;12.35;;
69569;SDS011;56781;42.292;23.146;2024-02-23T02:30:34;25.30;;;11.23;;
69569;SDS011;56781;42.292;23.146;2024-02-23T02:33:05;20.80;;;10.15;;
69569;SDS011;56781;42.292;23.146;2024-02-23T02:35:33;17.70;;;8.18;;
69569;SDS011;56781;42.292;23.146;2024-02-23T02:38:02;24.20;;;11.52;;
69569;SDS011;56781;42.292;23.146;2024-02-23T02:40:31;22.33;;;10.60;;
69569;SDS011;56781;42.292;23.146;2024-02-23T02:42:59;22.87;;;10.20;;
69569;SDS011;56781;42.292;23.146;2024-02-23T02:45:28;22.88;;;10.90;;
69569;SDS011;56781;42.292;23.146;2024-02-23T02:47:56;20.70;;;9.63;;
69569;SDS011;56781;42.292;23.146;2024-02-23T02:50:27;23.40;;;10.45;;
69569;SDS011;56781;42.292;23.146;2024-02-23T02:52:55;19.80;;;10.18;;
69569;SDS011;56781;42.292;23.146;2024-02-23T02:55:24;19.93;;;9.47;;
69569;SDS011;56781;42.292;23.146;2024-02-23T02:57:53;20.25;;;9.52;;
69569;SDS011;56781;42.292;23.146;2024-02-23T03:00:22;23.58;;;11.10;;
69569;SDS011;56781;42.292;23.146;2024-02-23T03:02:50;24.02;;;10.35;;
69569;SDS011;56781;42.292;23.146;2024-02-23T03:05:18;42.35;;;15.45;;
69569;SDS011;56781;42.292;23.146;2024-02-23T03:07:49;35.57;;;15.13;;
69569;SDS011;56781;42.292;23.146;2024-02-23T03:10:17;29.00;;;12.50;;
69569;SDS011;56781;42.292;23.146;2024-02-23T03:12:46;24.15;;;11.32;;
69569;SDS011;56781;42.292;23.146;2024-02-23T03:15:14;21.20;;;9.68;;
69569;SDS011;56781;42.292;23.146;2024-02-23T03:17:43;21.90;;;10.35;;
69569;SDS011;56781;42.292;23.146;2024-02-23T03:20:11;25.37;;;11.77;;
69569;SDS011;56781;42.292;23.146;2024-02-23T03:22:40;25.60;;;10.82;;
69569;SDS011;56781;42.292;23.146;2024-02-23T03:25:11;21.13;;;10.00;;
69569;SDS011;56781;42.292;23.146;2024-02-23T03:27:39;22.75;;;9.93;;
69569;SDS011;56781;42.292;23.146;2024-02-23T03:30:08;25.30;;;11.27;;
69569;SDS011;56781;42.292;23.146;2024-02-23T03:32:37;24.53;;;10.20;;
69569;SDS011;56781;42.292;23.146;2024-02-23T03:35:06;25.98;;;11.95;;
69569;SDS011;56781;42.292;23.146;2024-02-23T03:37:36;21.90;;;9.15;;
69569;SDS011;56781;42.292;23.146;2024-02-23T03:40:05;22.10;;;8.43;;
69569;SDS011;56781;42.292;23.146;2024-02-23T03:42:36;35.30;;;13.75;;
69569;SDS011;56781;42.292;23.146;2024-02-23T03:45:05;31.23;;;13.20;;
69569;SDS011;56781;42.292;23.146;2024-02-23T03:47:33;33.58;;;13.40;;
69569;SDS011;56781;42.292;23.146;2024-02-23T03:50:03;32.00;;;13.32;;
69569;SDS011;56781;42.292;23.146;2024-02-23T03:52:32;34.83;;;15.30;;
69569;SDS011;56781;42.292;23.146;2024-02-23T03:55:00;33.63;;;14.23;;
69569;SDS011;56781;42.292;23.146;2024-02-23T03:57:30;26.43;;;12.27;;
69569;SDS011;56781;42.292;23.146;2024-02-23T04:00:01;24.77;;;11.32;;
69569;SDS011;56781;42.292;23.146;2024-02-23T04:02:30;29.48;;;12.68;;
69569;SDS011;56781;42.292;23.146;2024-02-23T04:04:59;28.77;;;12.73;;
69569;SDS011;56781;42.292;23.146;2024-02-23T04:07:28;22.48;;;10.02;;
69569;SDS011;56781;42.292;23.146;2024-02-23T04:09:57;39.53;;;17.07;;
69569;SDS011;56781;42.292;23.146;2024-02-23T04:12:26;28.80;;;12.18;;
69569;SDS011;56781;42.292;23.146;2024-02-23T04:14:55;23.92;;;10.32;;
69569;SDS011;56781;42.292;23.146;2024-02-23T04:17:25;35.30;;;15.32;;
69569;SDS011;56781;42.292;23.146;2024-02-23T04:19:53;48.40;;;19.08;;
69569;SDS011;56781;42.292;23.146;2024-02-23T04:22:22;27.27;;;12.73;;
69569;SDS011;56781;42.292;23.146;2024-02-23T04:24:51;24.42;;;10.50;;
69569;SDS011;56781;42.292;23.146;2024-02-23T04:27:19;20.17;;;9.27;;
69569;SDS011;56781;42.292;23.146;2024-02-23T04:29:48;20.98;;;9.85;;
69569;SDS011;56781;42.292;23.146;2024-02-23T04:32:16;24.80;;;10.70;;
69569;SDS011;56781;42.292;23.146;2024-02-23T04:34:46;26.00;;;12.57;;
69569;SDS011;56781;42.292;23.146;2024-02-23T04:37:15;20.45;;;9.43;;
69569;SDS011;56781;42.292;23.146;2024-02-23T04:39:43;21.75;;;9.93;;
69569;SDS011;56781;42.292;23.146;2024-02-23T04:42:12;22.67;;;10.77;;
69569;SDS011;56781;42.292;23.146;2024-02-23T04:44:41;19.48;;;9.32;;
69569;SDS011;56781;42.292;23.146;2024-02-23T04:47:10;18.07;;;8.50;;
69569;SDS011;56781;42.292;23.146;2024-02-23T04:49:38;22.38;;;9.40;;
69569;SDS011;56781;42.292;23.146;2024-02-23T04:52:09;23.02;;;9.75;;
69569;SDS011;56781;42.292;23.146;2024-02-23T04:54:37;18.55;;;9.43;;
69569;SDS011;56781;42.292;23.146;2024-02-23T04:57:06;21.02;;;10.45;;
69569;SDS011;56781;42.292;23.146;2024-02-23T04:59:34;24.20;;;10.57;;
69569;SDS011;56781;42.292;23.146;2024-02-23T05:02:03;24.42;;;10.38;;
69569;SDS011;56781;42.292;23.146;2024-02-23T05:04:31;23.67;;;9.95;;
69569;SDS011;56781;42.292;23.146;2024-02-23T05:07:00;20.08;;;9.63;;
69569;SDS011;56781;42.292;23.146;2024-02-23T05:09:30;25.80;;;11.60;;
69569;SDS011;56781;42.292;23.146;2024-02-23T05:11:59;21.63;;;9.97;;
69569;SDS011;56781;42.292;23.146;2024-02-23T05:14:28;24.83;;;10.73;;
69569;SDS011;56781;42.292;23.146;2024-02-23T05:16:57;23.75;;;10.90;;
69569;SDS011;56781;42.292;23.146;2024-02-23T05:19:25;28.73;;;13.05;;
69569;SDS011;56781;42.292;23.146;2024-02-23T05:21:54;26.55;;;12.82;;
69569;SDS011;56781;42.292;23.146;2024-02-23T05:24:23;26.23;;;12.00;;
69569;SDS011;56781;42.292;23.146;2024-02-23T05:26:53;23.00;;;10.13;;
69569;SDS011;56781;42.292;23.146;2024-02-23T05:29:22;21.95;;;10.10;;
69569;SDS011;56781;42.292;23.146;2024-02-23T05:31:51;20.25;;;9.68;;
69569;SDS011;56781;42.292;23.146;2024-02-23T05:34:20;23.83;;;11.40;;
69569;SDS011;56781;42.292;23.146;2024-02-23T05:36:49;24.50;;;11.07;;
69569;SDS011;56781;42.292;23.146;2024-02-23T05:39:18;27.38;;;11.70;;
69569;SDS011;56781;42.292;23.146;2024-02-23T05:41:46;22.27;;;10.20;;
69569;SDS011;56781;42.292;23.146;2024-02-23T05:44:16;30.85;;;14.75;;
69569;SDS011;56781;42.292;23.146;2024-02-23T05:46:45;28.77;;;13.25;;
69569;SDS011;56781;42.292;23.146;2024-02-23T05:49:14;26.53;;;10.93;;
69569;SDS011;56781;42.292;23.146;2024-02-23T05:51:43;26.85;;;11.98;;
69569;SDS011;56781;42.292;23.146;2024-02-23T05:54:11;22.15;;;10.00;;
69569;SDS011;56781;42.292;23.146;2024-02-23T05:56:40;21.02;;;9.77;;
69569;SDS011;56781;42.292;23.146;2024-02-23T05:59:08;21.33;;;9.40;;
69569;SDS011;56781;42.292;23.146;2024-02-23T06:01:38;22.07;;;9.37;;
69569;SDS011;56781;42.292;23.146;2024-02-23T06:04:07;22.98;;;9.50;;
69569;SDS011;56781;42.292;23.146;2024-02-23T06:06:35;22.85;;;10.20;;
69569;SDS011;56781;42.292;23.146;2024-02-23T06:09:04;18.65;;;9.52;;
69569;SDS011;56781;42.292;23.146;2024-02-23T06:11:33;24.25;;;11.57;;
69569;SDS011;56781;42.292;23.146;2024-02-23T06:14:02;20.53;;;9.43;;
69569;SDS011;56781;42.292;23.146;2024-02-23T06:16:30;23.38;;;11.00;;
69569;SDS011;56781;42.292;23.146;2024-02-23T06:19:00;23.55;;;10.90;;
69569;SDS011;56781;42.292;23.146;2024-02-23T06:21:30;23.02;;;10.52;;
69569;SDS011;56781;42.292;23.146;2024-02-23T06:23:59;24.02;;;10.30;;
69569;SDS011;56781;42.292;23.146;2024-02-23T06:26:27;23.00;;;10.07;;
69569;SDS011;56781;42.292;23.146;2024-02-23T06:28:56;33.40;;;12.55;;
69569;SDS011;56781;42.292;23.146;2024-02-23T06:31:25;23.45;;;10.95;;
69569;SDS011;56781;42.292;23.146;2024-02-23T06:33:53;22.33;;;10.70;;
69569;SDS011;56781;42.292;23.146;2024-02-23T06:36:23;24.63;;;11.40;;
69569;SDS011;56781;42.292;23.146;2024-02-23T06:38:52;21.00;;;11.03;;
69569;SDS011;56781;42.292;23.146;2024-02-23T06:41:21;17.60;;;8.50;;
69569;SDS011;56781;42.292;23.146;2024-02-23T06:43:50;15.57;;;8.45;;
69569;SDS011;56781;42.292;23.146;2024-02-23T06:46:18;19.58;;;9.43;;
69569;SDS011;56781;42.292;23.146;2024-02-23T06:48:47;19.20;;;10.23;;
69569;SDS011;56781;42.292;23.146;2024-02-23T06:51:16;21.90;;;9.77;;
69569;SDS011;56781;42.292;23.146;2024-02-23T06:53:46;19.88;;;9.70;;
69569;SDS011;56781;42.292;23.146;2024-02-23T06:56:14;17.88;;;9.55;;
69569;SDS011;56781;42.292;23.146;2024-02-23T06:58:43;22.73;;;11.32;;
69569;SDS011;56781;42.292;23.146;2024-02-23T07:01:12;21.10;;;10.00;;
69569;SDS011;56781;42.292;23.146;2024-02-23T07:03:40;23.67;;;10.40;;
69569;SDS011;56781;42.292;23.146;2024-02-23T07:06:10;18.80;;;9.45;;
69569;SDS011;56781;42.292;23.146;2024-02-23T07:08:39;22.38;;;9.88;;
69569;SDS011;56781;42.292;23.146;2024-02-23T07:11:09;17.65;;;9.48;;
69569;SDS011;56781;42.292;23.146;2024-02-23T07:13:38;22.67;;;11.18;;
69569;SDS011;56781;42.292;23.146;2024-02-23T07:16:07;22.47;;;11.70;;
69569;SDS011;56781;42.292;23.146;2024-02-23T07:18:36;18.15;;;8.77;;
69569;SDS011;56781;42.292;23.146;2024-02-23T07:21:04;16.83;;;9.00;;
69569;SDS011;56781;42.292;23.146;2024-02-23T07:23:33;15.98;;;8.32;;
69569;SDS011;56781;42.292;23.146;2024-02-23T07:26:02;14.77;;;8.15;;
69569;SDS011;56781;42.292;23.146;2024-02-23T07:28:32;15.33;;;8.23;;
69569;SDS011;56781;42.292;23.146;2024-02-23T07:31:00;18.50;;;8.98;;
69569;SDS011;56781;42.292;23.146;2024-02-23T07:33:29;17.90;;;8.32;;
69569;SDS011;56781;42.292;23.146;2024-02-23T07:35:58;17.27;;;8.98;;
69569;SDS011;56781;42.292;23.146;2024-02-23T07:38:26;15.13;;;7.53;;
69569;SDS011;56781;42.292;23.146;2024-02-23T07:40:55;15.27;;;7.83;;
69569;SDS011;56781;42.292;23.146;2024-02-23T07:43:25;13.45;;;6.45;;
69569;SDS011;56781;42.292;23.146;2024-02-23T07:45:57;14.88;;;6.75;;
69569;SDS011;56781;42.292;23.146;2024-02-23T07:48:25;10.65;;;6.07;;
69569;SDS011;56781;42.292;23.146;2024-02-23T07:50:54;12.50;;;6.18;;
69569;SDS011;56781;42.292;23.146;2024-02-23T07:53:23;13.17;;;6.40;;
69569;SDS011;56781;42.292;23.146;2024-02-23T07:55:51;10.98;;;5.45;;
69569;SDS011;56781;42.292;23.146;2024-02-23T07:58:20;10.75;;;5.90;;
69569;SDS011;56781;42.292;23.146;2024-02-23T08:00:49;11.88;;;6.82;;
69569;SDS011;56781;42.292;23.146;2024-02-23T08:03:19;9.95;;;5.22;;
69569;SDS011;56781;42.292;23.146;2024-02-23T08:05:47;10.87;;;6.20;;
69569;SDS011;56781;42.292;23.146;2024-02-23T08:08:16;10.23;;;5.03;;
69569;SDS011;56781;42.292;23.146;2024-02-23T08:10:44;9.70;;;5.25;;
69569;SDS011;56781;42.292;23.146;2024-02-23T08:13:13;11.57;;;5.78;;
69569;SDS011;56781;42.292;23.146;2024-02-23T08:15:42;11.00;;;4.50;;
69569;SDS011;56781;42.292;23.146;2024-02-23T08:18:10;8.93;;;4.47;;
69569;SDS011;56781;42.292;23.146;2024-02-23T08:20:40;9.90;;;5.00;;
69569;SDS011;56781;42.292;23.146;2024-02-23T08:23:09;10.48;;;5.53;;
69569;SDS011;56781;42.292;23.146;2024-02-23T08:25:37;10.63;;;4.78;;
69569;SDS011;56781;42.292;23.146;2024-02-23T08:28:06;10.85;;;5.63;;
69569;SDS011;56781;42.292;23.146;2024-02-23T08:30:35;9.07;;;4.60;;
69569;SDS011;56781;42.292;23.146;2024-02-23T08:33:03;10.30;;;5.30;;
69569;SDS011;56781;42.292;23.146;2024-02-23T08:35:32;7.72;;;4.07;;
69569;SDS011;56781;42.292;23.146;2024-02-23T08:38:02;7.72;;;3.75;;
69569;SDS011;56781;42.292;23.146;2024-02-23T08:40:31;6.72;;;3.75;;
69569;SDS011;56781;42.292;23.146;2024-02-23T08:43:00;6.75;;;3.67;;
69569;SDS011;56781;42.292;23.146;2024-02-23T08:45:28;7.07;;;1.90;;
69569;SDS011;56781;42.292;23.146;2024-02-23T08:47:56;4.20;;;1.48;;
69569;SDS011;56781;42.292;23.146;2024-02-23T08:50:25;2.90;;;1.00;;
69569;SDS011;56781;42.292;23.146;2024-02-23T08:52:54;4.18;;;1.55;;
69569;SDS011;56781;42.292;23.146;2024-02-23T08:55:24;4.30;;;1.30;;
69569;SDS011;56781;42.292;23.146;2024-02-23T08:57:52;6.22;;;2.55;;
69569;SDS011;56781;42.292;23.146;2024-02-23T09:00:21;5.93;;;2.10;;
69569;SDS011;56781;42.292;23.146;2024-02-23T09:02:51;3.90;;;1.60;;
69569;SDS011;56781;42.292;23.146;2024-02-23T09:05:19;6.68;;;2.97;;
69569;SDS011;56781;42.292;23.146;2024-02-23T09:07:48;5.97;;;2.20;;
69569;SDS011;56781;42.292;23.146;2024-02-23T09:10:17;4.53;;;2.03;;
69569;SDS011;56781;42.292;23.146;2024-02-23T09:12:47;6.28;;;1.98;;
69569;SDS011;56781;42.292;23.146;2024-02-23T09:15:16;6.43;;;2.15;;
69569;SDS011;56781;42.292;23.146;2024-02-23T09:17:44;4.65;;;1.73;;
69569;SDS011;56781;42.292;23.146;2024-02-23T09:20:13;4.60;;;1.80;;
69569;SDS011;56781;42.292;23.146;2024-02-23T09:22:41;5.60;;;1.40;;
69569;SDS011;56781;42.292;23.146;2024-02-23T09:25:10;3.25;;;1.42;;
69569;SDS011;56781;42.292;23.146;2024-02-23T09:27:38;4.07;;;1.77;;
69569;SDS011;56781;42.292;23.146;2024-02-23T09:30:13;4.32;;;1.63;;
69569;SDS011;56781;42.292;23.146;2024-02-23T09:32:42;3.70;;;1.50;;
69569;SDS011;56781;42.292;23.146;2024-02-23T09:35:11;2.88;;;1.10;;
69569;SDS011;56781;42.292;23.146;2024-02-23T09:37:40;4.85;;;1.67;;
69569;SDS011;56781;42.292;23.146;2024-02-23T09:40:09;4.35;;;1.90;;
69569;SDS011;56781;42.292;23.146;2024-02-23T09:42:38;5.20;;;2.00;;
69569;SDS011;56781;42.292;23.146;2024-02-23T09:45:07;5.88;;;2.30;;
69569;SDS011;56781;42.292;23.146;2024-02-23T09:47:40;4.45;;;2.00;;
69569;SDS011;56781;42.292;23.146;2024-02-23T09:50:11;5.10;;;2.10;;
69569;SDS011;56781;42.292;23.146;2024-02-23T09:52:41;4.88;;;2.00;;
69569;SDS011;56781;42.292;23.146;2024-02-23T09:55:09;5.30;;;2.30;;
69569;SDS011;56781;42.292;23.146;2024-02-23T09:57:38;5.20;;;1.70;;
69569;SDS011;56781;42.292;23.146;2024-02-23T10:00:08;3.53;;;1.65;;
69569;SDS011;56781;42.292;23.146;2024-02-23T10:02:40;3.75;;;1.77;;
69569;SDS011;56781;42.292;23.146;2024-02-23T10:05:08;3.58;;;1.63;;
69569;SDS011;56781;42.292;23.146;2024-02-23T10:07:38;5.05;;;1.90;;
69569;SDS011;56781;42.292;23.146;2024-02-23T10:10:07;5.45;;;1.85;;
69569;SDS011;56781;42.292;23.146;2024-02-23T10:12:37;4.93;;;1.90;;
69569;SDS011;56781;42.292;23.146;2024-02-23T10:15:06;5.55;;;1.50;;
69569;SDS011;56781;42.292;23.146;2024-02-23T10:17:35;3.40;;;1.60;;
69569;SDS011;56781;42.292;23.146;2024-02-23T10:20:07;3.83;;;1.90;;
69569;SDS011;56781;42.292;23.146;2024-02-23T10:22:35;4.60;;;2.20;;
69569;SDS011;56781;42.292;23.146;2024-02-23T10:25:04;3.97;;;2.22;;
69569;SDS011;56781;42.292;23.146;2024-02-23T10:27:33;4.47;;;2.00;;
69569;SDS011;56781;42.292;23.146;2024-02-23T10:30:02;4.57;;;2.00;;
69569;SDS011;56781;42.292;23.146;2024-02-23T10:32:30;3.30;;;1.50;;
69569;SDS011;56781;42.292;23.146;2024-02-23T10:35:00;4.43;;;1.83;;
69569;SDS011;56781;42.292;23.146;2024-02-23T10:37:32;3.47;;;1.60;;
69569;SDS011;56781;42.292;23.146;2024-02-23T10:40:02;3.95;;;1.80;;
69569;SDS011;56781;42.292;23.146;2024-02-23T10:42:36;4.05;;;1.70;;
69569;SDS011;56781;42.292;23.146;2024-02-23T10:45:07;3.78;;;1.67;;
69569;SDS011;56781;42.292;23.146;2024-02-23T10:47:36;2.95;;;1.30;;
69569;SDS011;56781;42.292;23.146;2024-02-23T10:50:05;5.13;;;1.88;;
69569;SDS011;56781;42.292;23.146;2024-02-23T10:52:36;4.07;;;1.65;;
69569;SDS011;56781;42.292;23.146;2024-02-23T10:55:06;4.30;;;1.67;;
69569;SDS011;56781;42.292;23.146;2024-02-23T10:57:36;4.50;;;1.85;;
69569;SDS011;56781;42.292;23.146;2024-02-23T11:00:07;3.72;;;1.50;;
69569;SDS011;56781;42.292;23.146;2024-02-23T11:02:38;5.72;;;2.50;;
69569;SDS011;56781;42.292;23.146;2024-02-23T11:05:10;4.28;;;2.00;;
69569;SDS011;56781;42.292;23.146;2024-02-23T11:07:42;3.75;;;1.60;;
69569;SDS011;56781;42.292;23.146;2024-02-23T11:10:12;3.80;;;1.80;;
69569;SDS011;56781;42.292;23.146;2024-02-23T11:12:41;3.63;;;1.45;;
69569;SDS011;56781;42.292;23.146;2024-02-23T11:15:10;3.78;;;1.70;;
69569;SDS011;56781;42.292;23.146;2024-02-23T11:17:54;3.63;;;1.65;;
69569;SDS011;56781;42.292;23.146;2024-02-23T11:20:23;3.60;;;1.80;;
69569;SDS011;56781;42.292;23.146;2024-02-23T11:22:57;4.45;;;2.03;;
69569;SDS011;56781;42.292;23.146;2024-02-23T11:25:26;4.22;;;1.50;;
69569;SDS011;56781;42.292;23.146;2024-02-23T11:27:55;3.95;;;1.90;;
69569;SDS011;56781;42.292;23.146;2024-02-23T11:30:23;5.28;;;2.03;;
69569;SDS011;56781;42.292;23.146;2024-02-23T11:32:58;4.20;;;1.90;;
69569;SDS011;56781;42.292;23.146;2024-02-23T11:35:27;3.67;;;1.83;;
69569;SDS011;56781;42.292;23.146;2024-02-23T11:37:58;3.40;;;1.50;;
69569;SDS011;56781;42.292;23.146;2024-02-23T11:40:33;3.90;;;1.65;;
69569;SDS011;56781;42.292;23.146;2024-02-23T11:43:02;4.30;;;1.90;;
69569;SDS011;56781;42.292;23.146;2024-02-23T11:45:31;3.97;;;1.77;;
69569;SDS011;56781;42.292;23.146;2024-02-23T11:48:00;4.70;;;2.30;;
69569;SDS011;56781;42.292;23.146;2024-02-23T11:50:28;3.78;;;1.90;;
69569;SDS011;56781;42.292;23.146;2024-02-23T11:52:58;4.88;;;1.90;;
69569;SDS011;56781;42.292;23.146;2024-02-23T11:55:27;4.05;;;2.00;;
69569;SDS011;56781;42.292;23.146;2024-02-23T11:57:56;4.10;;;2.00;;
69569;SDS011;56781;42.292;23.146;2024-02-23T12:00:34;3.80;;;1.80;;
69569;SDS011;56781;42.292;23.146;2024-02-23T12:03:04;4.57;;;1.98;;
69569;SDS011;56781;42.292;23.146;2024-02-23T12:05:34;3.35;;;1.67;;
69569;SDS011;56781;42.292;23.146;2024-02-23T12:08:04;4.05;;;1.80;;
69569;SDS011;56781;42.292;23.146;2024-02-23T12:10:33;3.40;;;1.60;;
69569;SDS011;56781;42.292;23.146;2024-02-23T12:13:03;4.30;;;1.98;;
69569;SDS011;56781;42.292;23.146;2024-02-23T12:15:31;6.82;;;2.30;;
69569;SDS011;56781;42.292;23.146;2024-02-23T12:18:00;4.13;;;2.05;;
69569;SDS011;56781;42.292;23.146;2024-02-23T12:20:32;4.53;;;2.10;;
69569;SDS011;56781;42.292;23.146;2024-02-23T12:23:01;5.53;;;1.63;;
69569;SDS011;56781;42.292;23.146;2024-02-23T12:25:31;4.50;;;2.20;;
69569;SDS011;56781;42.292;23.146;2024-02-23T12:28:00;5.93;;;2.40;;
69569;SDS011;56781;42.292;23.146;2024-02-23T12:30:29;5.50;;;2.00;;
69569;SDS011;56781;42.292;23.146;2024-02-23T12:33:03;4.30;;;2.22;;
69569;SDS011;56781;42.292;23.146;2024-02-23T12:35:32;5.40;;;2.20;;
69569;SDS011;56781;42.292;23.146;2024-02-23T12:38:02;4.50;;;1.77;;
69569;SDS011;56781;42.292;23.146;2024-02-23T12:40:32;7.20;;;2.60;;
69569;SDS011;56781;42.292;23.146;2024-02-23T12:43:01;4.93;;;2.28;;
69569;SDS011;56781;42.292;23.146;2024-02-23T12:45:29;4.93;;;2.10;;
69569;SDS011;56781;42.292;23.146;2024-02-23T12:47:57;5.18;;;2.58;;
69569;SDS011;56781;42.292;23.146;2024-02-23T12:50:26;4.68;;;2.08;;
69569;SDS011;56781;42.292;23.146;2024-02-23T12:52:57;4.22;;;2.22;;
69569;SDS011;56781;42.292;23.146;2024-02-23T12:55:27;4.50;;;2.10;;
69569;SDS011;56781;42.292;23.146;2024-02-23T12:57:57;5.45;;;2.10;;
69569;SDS011;56781;42.292;23.146;2024-02-23T13:00:25;4.57;;;2.40;;
69569;SDS011;56781;42.292;23.146;2024-02-23T13:02:53;4.85;;;2.05;;
69569;SDS011;56781;42.292;23.146;2024-02-23T13:05:22;7.30;;;2.75;;
69569;SDS011;56781;42.292;23.146;2024-02-23T13:07:51;11.27;;;4.03;;
69569;SDS011;56781;42.292;23.146;2024-02-23T13:10:19;6.60;;;3.15;;
69569;SDS011;56781;42.292;23.146;2024-02-23T13:12:50;8.15;;;3.58;;
69569;SDS011;56781;42.292;23.146;2024-02-23T13:15:19;6.90;;;3.58;;
69569;SDS011;56781;42.292;23.146;2024-02-23T13:17:52;6.93;;;2.90;;
69569;SDS011;56781;42.292;23.146;2024-02-23T13:20:21;5.13;;;2.63;;
69569;SDS011;56781;42.292;23.146;2024-02-23T13:22:49;5.65;;;2.50;;
69569;SDS011;56781;42.292;23.146;2024-02-23T13:25:18;5.68;;;2.80;;
69569;SDS011;56781;42.292;23.146;2024-02-23T13:27:47;7.25;;;2.17;;
69569;SDS011;56781;42.292;23.146;2024-02-23T13:30:15;4.00;;;2.10;;
69569;SDS011;56781;42.292;23.146;2024-02-23T13:32:45;4.65;;;2.55;;
69569;SDS011;56781;42.292;23.146;2024-02-23T13:35:14;4.13;;;1.98;;
69569;SDS011;56781;42.292;23.146;2024-02-23T13:37:43;4.72;;;2.40;;
69569;SDS011;56781;42.292;23.146;2024-02-23T13:40:12;5.75;;;2.67;;
69569;SDS011;56781;42.292;23.146;2024-02-23T13:42:41;4.15;;;2.10;;
69569;SDS011;56781;42.292;23.146;2024-02-23T13:45:12;3.70;;;2.03;;
69569;SDS011;56781;42.292;23.146;2024-02-23T13:47:41;4.65;;;2.40;;
69569;SDS011;56781;42.292;23.146;2024-02-23T13:50:12;5.28;;;2.30;;
69569;SDS011;56781;42.292;23.146;2024-02-23T13:52:41;4.80;;;2.20;;
69569;SDS011;56781;42.292;23.146;2024-02-23T13:55:09;5.10;;;2.70;;
69569;SDS011;56781;42.292;23.146;2024-02-23T13:57:38;4.30;;;2.25;;
69569;SDS011;56781;42.292;23.146;2024-02-23T14:00:07;5.53;;;3.10;;
69569;SDS011;56781;42.292;23.146;2024-02-23T14:02:39;23.15;;;11.98;;
69569;SDS011;56781;42.292;23.146;2024-02-23T14:05:08;7.88;;;4.75;;
69569;SDS011;56781;42.292;23.146;2024-02-23T14:07:38;5.68;;;2.38;;
69569;SDS011;56781;42.292;23.146;2024-02-23T14:10:07;10.23;;;3.22;;
69569;SDS011;56781;42.292;23.146;2024-02-23T14:12:36;5.43;;;2.65;;
69569;SDS011;56781;42.292;23.146;2024-02-23T14:15:04;6.75;;;3.47;;
69569;SDS011;56781;42.292;23.146;2024-02-23T14:17:33;11.82;;;6.05;;
69569;SDS011;56781;42.292;23.146;2024-02-23T14:20:02;9.02;;;5.28;;
69569;SDS011;56781;42.292;23.146;2024-02-23T14:22:31;8.32;;;4.60;;
69569;SDS011;56781;42.292;23.146;2024-02-23T14:25:01;9.57;;;6.05;;
69569;SDS011;56781;42.292;23.146;2024-02-23T14:27:30;8.57;;;5.50;;
69569;SDS011;56781;42.292;23.146;2024-02-23T14:29:58;10.50;;;5.65;;
69569;SDS011;56781;42.292;23.146;2024-02-23T14:32:27;10.23;;;5.40;;